Main page
METAR-TAF:

METAR-TAF

Airports :

Hua Hin Airport

Hua Hin, Thailand

latitude: 12-35N, longitude: 099-57E, elevation: 5 m

Current weather observation

The report was made 8 hours and 1 minutes ago, at 11:00 UTC
Wind 3 kt from the North, varying between Northwest and Northeast
Temperature 29°C
Humidity 74%
Pressure 1007 hPa
Visibility 10 km or more
Few clouds at a height of 3000 ft

METAR: VTPH 011100Z 35003KT 320V040 9999 FEW030 29/24 Q1007 NOSIG

Time: 02:01 (19:01 UTC)

Forecast

The report was made 2 hours and 1 minutes ago, at 17:00 UTC
Forecast valid from 01 at 18 UTC to 02 at 18 UTC
Wind 5 kt from the North
Visibility 10 km or more
Few clouds at a height of 2000 ft

TAF: VTPH 011700Z 0118/0218 35005KT 9999 FEW020

Weather observations and forecasts of more than 4000 airports (METAR and TAF reports).

The available stations are represented by yellow and red dots on the map.

Hover mouse over dot to see the name of the station.

Then click to see weather observations and forecasts.

To change the map : click on the green buttons with a black cross to zoom in, on the green button with a dash to zoom out, or on the green arrows for adjacent maps.


METAR-TAF: